Time;durP1;ratioP1;P1;durP2;ratioP2;P2;SDS_P1;SDS_P2;PMS_P1;PMS_P2;Temp;Humidity;BMP_temperature;BMP_pressure;BME280_temperature;BME280_humidity;BME280_pressure;Samples;Min_cycle;Max_cycle;Signal;HPM_P1;HPM_P2
2023/03/04 00:02:06;;;;;;;12.98;4.40;;;4.40;99.90;;;;;;5036366;28;20202;-59
2023/03/04 00:04:32;;;;;;;8.93;3.50;;;4.50;99.90;;;;;;5035544;28;20241;-62
2023/03/04 00:06:59;;;;;;;18.58;4.22;;;4.50;99.90;;;;;;5035049;28;20198;-60
2023/03/04 00:09:26;;;;;;;6.85;3.25;;;4.50;99.90;;;;;;5034405;28;20210;-60
2023/03/04 00:11:53;;;;;;;13.40;4.43;;;4.50;99.90;;;;;;5034428;28;20206;-60
2023/03/04 00:14:21;;;;;;;13.02;3.72;;;4.50;99.90;;;;;;5034539;28;20232;-60
2023/03/04 00:16:48;;;;;;;11.13;4.00;;;4.50;99.90;;;;;;5033984;28;20261;-60
2023/03/04 00:19:15;;;;;;;13.35;3.83;;;4.50;99.90;;;;;;5035102;28;20213;-60
2023/03/04 00:21:42;;;;;;;11.52;4.30;;;4.50;99.90;;;;;;5034285;28;20642;-59
2023/03/04 00:24:09;;;;;;;15.07;4.90;;;4.50;99.90;;;;;;5033930;28;20222;-60
2023/03/04 00:26:36;;;;;;;17.08;4.43;;;4.60;99.90;;;;;;5035440;28;20682;-60
2023/03/04 00:29:02;;;;;;;9.40;4.10;;;4.60;99.90;;;;;;5037939;28;20206;-59
2023/03/04 00:31:30;;;;;;;14.57;3.25;;;4.60;99.90;;;;;;5038860;28;20285;-60
2023/03/04 00:33:57;;;;;;;15.50;4.20;;;4.60;99.90;;;;;;5038689;28;20222;-60
2023/03/04 00:36:24;;;;;;;9.40;4.25;;;4.60;99.90;;;;;;5038203;28;20218;-60
2023/03/04 00:38:51;;;;;;;14.05;4.13;;;4.60;99.90;;;;;;5039429;28;20202;-60
2023/03/04 00:41:18;;;;;;;14.85;4.28;;;4.60;99.90;;;;;;5038669;28;20202;-60
2023/03/04 00:43:44;;;;;;;13.55;3.05;;;4.70;99.90;;;;;;5037848;28;20205;-60
2023/03/04 00:46:11;;;;;;;8.88;3.40;;;4.70;99.90;;;;;;5037668;28;20198;-60
2023/03/04 00:48:39;;;;;;;12.70;3.67;;;4.60;99.90;;;;;;5038849;28;20202;-59
2023/03/04 00:51:06;;;;;;;9.52;3.33;;;4.60;99.90;;;;;;5037346;28;20671;-60
2023/03/04 00:53:33;;;;;;;12.77;3.60;;;4.70;99.90;;;;;;5037521;28;20210;-59
2023/03/04 00:55:59;;;;;;;9.85;3.35;;;4.70;99.90;;;;;;5037490;28;20223;-59
2023/03/04 00:58:26;;;;;;;12.10;3.40;;;4.70;99.90;;;;;;5037818;28;20203;-61
2023/03/04 01:00:53;;;;;;;13.70;3.55;;;4.70;99.90;;;;;;5039326;28;20206;-59
2023/03/04 01:03:20;;;;;;;14.63;3.80;;;4.70;99.90;;;;;;5038000;28;20576;-60
2023/03/04 01:05:48;;;;;;;10.00;3.63;;;4.70;99.90;;;;;;5038339;28;20229;-60
2023/03/04 01:08:14;;;;;;;15.20;4.97;;;4.70;99.90;;;;;;5040930;28;20537;-59
2023/03/04 01:10:41;;;;;;;15.05;3.40;;;4.70;99.90;;;;;;5045144;28;20213;-60
2023/03/04 01:13:08;;;;;;;13.90;4.63;;;4.70;99.90;;;;;;5046115;28;20210;-60
2023/03/04 01:15:35;;;;;;;12.65;4.15;;;4.70;99.90;;;;;;5049215;28;20313;-61
2023/03/04 01:18:01;;;;;;;11.35;3.90;;;4.80;99.90;;;;;;5050539;28;20209;-58
2023/03/04 01:20:28;;;;;;;12.38;4.13;;;4.80;99.90;;;;;;5050785;28;20613;-60
2023/03/04 01:22:56;;;;;;;11.20;3.20;;;4.80;99.90;;;;;;5041318;28;20205;-60
2023/03/04 01:25:23;;;;;;;11.55;4.15;;;4.80;99.90;;;;;;5046120;28;20226;-60
2023/03/04 01:27:49;;;;;;;13.07;4.47;;;4.80;99.90;;;;;;5039891;28;20210;-60
2023/03/04 01:30:16;;;;;;;9.60;3.25;;;4.80;99.90;;;;;;5038429;28;20206;-60
2023/03/04 01:32:43;;;;;;;10.40;4.25;;;4.80;99.90;;;;;;5037852;28;20557;-60
2023/03/04 01:35:10;;;;;;;10.60;4.57;;;4.80;99.90;;;;;;5041605;28;20225;-60
2023/03/04 01:37:37;;;;;;;13.13;3.97;;;4.80;99.90;;;;;;5041600;28;20222;-60
2023/03/04 01:40:06;;;;;;;9.60;3.30;;;4.80;99.90;;;;;;5043739;28;20202;-61
2023/03/04 01:42:35;;;;;;;8.65;3.03;;;4.80;99.90;;;;;;5045178;28;20212;-61
2023/03/04 01:45:03;;;;;;;13.55;3.88;;;4.80;99.90;;;;;;5040049;28;20313;-60
2023/03/04 01:47:32;;;;;;;5.30;3.15;;;4.80;99.90;;;;;;5039005;28;20202;-60
2023/03/04 01:50:03;;;;;;;10.30;3.42;;;4.80;99.90;;;;;;5039001;28;20209;-60
2023/03/04 01:52:29;;;;;;;19.55;3.58;;;4.90;99.90;;;;;;5039490;28;20193;-60
2023/03/04 01:54:57;;;;;;;12.98;3.47;;;4.80;99.90;;;;;;5036994;28;20242;-61
2023/03/04 01:57:26;;;;;;;11.38;3.10;;;4.90;99.90;;;;;;5036836;28;20218;-61
2023/03/04 02:00:20;;;;;;;8.30;3.20;;;4.90;99.90;;;;;;5036155;28;20548;-60
2023/03/04 02:02:49;;;;;;;9.75;2.53;;;4.90;99.90;;;;;;5036254;28;20222;-60
2023/03/04 02:05:16;;;;;;;11.10;3.03;;;4.90;99.90;;;;;;5035852;28;20734;-59
2023/03/04 02:07:43;;;;;;;6.38;2.30;;;4.90;99.90;;;;;;5036283;28;20210;-60
2023/03/04 02:10:11;;;;;;;8.10;2.83;;;4.90;99.90;;;;;;5036350;28;20206;-59
2023/03/04 02:12:40;;;;;;;9.02;2.95;;;4.90;99.90;;;;;;5035768;28;20199;-60
2023/03/04 02:15:08;;;;;;;8.00;3.25;;;4.90;99.90;;;;;;5035818;28;20737;-60
2023/03/04 02:17:35;;;;;;;6.90;2.63;;;4.90;99.90;;;;;;5035837;28;20222;-60
2023/03/04 02:20:12;;;;;;;6.30;3.00;;;4.90;99.90;;;;;;5035763;28;20234;-61
2023/03/04 02:22:46;;;;;;;13.77;3.20;;;4.90;99.90;;;;;;5035851;28;20186;-60
2023/03/04 02:25:18;;;;;;;11.68;2.70;;;5.00;99.90;;;;;;5035643;28;20237;-61
2023/03/04 02:27:46;;;;;;;7.28;2.22;;;4.90;99.90;;;;;;5036033;28;20193;-60
2023/03/04 02:30:21;;;;;;;7.80;2.30;;;5.00;99.90;;;;;;5037120;28;20214;-60
2023/03/04 02:32:48;;;;;;;11.27;3.60;;;5.00;99.90;;;;;;5041074;28;20193;-60
2023/03/04 02:35:17;;;;;;;5.63;2.42;;;5.00;99.90;;;;;;5042292;28;20233;-60
2023/03/04 02:37:44;;;;;;;15.23;2.88;;;5.00;99.90;;;;;;5044629;28;20222;-60
2023/03/04 02:40:16;;;;;;;6.80;2.38;;;5.00;99.90;;;;;;5045090;28;20206;-60
2023/03/04 02:42:46;;;;;;;12.27;5.00;;;5.00;99.90;;;;;;5038059;28;20643;-60
2023/03/04 02:45:34;;;;;;;16.35;3.65;;;5.00;99.90;;;;;;5041412;28;20225;-59
2023/03/04 02:48:02;;;;;;;10.10;2.25;;;5.00;99.90;;;;;;5037459;28;20194;-60
2023/03/04 02:50:33;;;;;;;6.07;2.33;;;5.00;99.90;;;;;;5037801;28;20202;-60
2023/03/04 02:52:59;;;;;;;13.73;3.28;;;5.00;99.90;;;;;;5040756;28;20187;-60
2023/03/04 02:55:27;;;;;;;3.60;1.80;;;5.00;99.90;;;;;;5042047;28;20680;-60
2023/03/04 02:57:55;;;;;;;13.07;2.65;;;5.00;99.90;;;;;;5042052;28;20286;-60
2023/03/04 03:00:22;;;;;;;13.25;3.75;;;5.00;99.90;;;;;;5044697;28;20198;-60
2023/03/04 03:02:48;;;;;;;7.95;2.05;;;5.00;99.90;;;;;;5046607;28;20212;-60
2023/03/04 03:05:16;;;;;;;9.02;2.35;;;5.10;99.90;;;;;;5044392;28;20226;-60
2023/03/04 03:07:43;;;;;;;7.22;2.30;;;5.00;99.90;;;;;;5041348;28;20195;-60
2023/03/04 03:10:11;;;;;;;5.82;2.75;;;5.00;99.90;;;;;;5040407;28;20573;-60
2023/03/04 03:12:37;;;;;;;7.93;1.92;;;5.00;99.90;;;;;;5037958;28;20217;-60
2023/03/04 03:15:07;;;;;;;9.45;1.95;;;5.10;99.90;;;;;;5039851;28;20222;-60
2023/03/04 03:17:34;;;;;;;4.20;1.80;;;5.10;99.90;;;;;;5047112;28;20226;-59
2023/03/04 03:20:00;;;;;;;7.95;2.42;;;5.10;99.90;;;;;;5046971;28;20199;-60
2023/03/04 03:22:27;;;;;;;4.47;1.55;;;5.10;99.90;;;;;;5046551;28;20209;-60
2023/03/04 03:24:54;;;;;;;9.75;2.38;;;5.10;99.90;;;;;;5047337;28;20257;-60
2023/03/04 03:27:21;;;;;;;10.40;2.30;;;5.10;99.90;;;;;;5047737;28;20204;-60
2023/03/04 03:29:47;;;;;;;5.10;1.75;;;5.10;99.90;;;;;;5047047;28;20202;-59
2023/03/04 03:32:15;;;;;;;7.57;1.85;;;5.10;99.90;;;;;;5045554;28;20240;-61
2023/03/04 03:34:42;;;;;;;7.20;2.80;;;5.10;99.90;;;;;;5037576;28;20229;-60
2023/03/04 03:37:09;;;;;;;7.15;2.20;;;5.10;99.90;;;;;;5035845;28;20218;-60
2023/03/04 03:39:36;;;;;;;4.28;1.80;;;5.10;99.90;;;;;;5035815;28;20229;-61
2023/03/04 03:42:02;;;;;;;6.28;1.67;;;5.10;99.90;;;;;;5035112;28;20202;-61
2023/03/04 03:44:29;;;;;;;10.38;2.08;;;5.10;99.90;;;;;;5034655;28;20222;-60
2023/03/04 03:46:56;;;;;;;7.45;1.70;;;5.10;99.90;;;;;;5033943;28;20194;-60
2023/03/04 03:49:24;;;;;;;13.07;2.38;;;5.10;99.90;;;;;;5033753;28;20202;-60
2023/03/04 03:51:51;;;;;;;9.35;2.10;;;5.10;99.90;;;;;;5033997;28;20209;-60
2023/03/04 03:54:17;;;;;;;6.20;1.40;;;5.10;99.90;;;;;;5034407;28;20227;-61
2023/03/04 03:56:44;;;;;;;6.07;1.80;;;5.10;99.90;;;;;;5034785;28;20584;-61
2023/03/04 03:59:11;;;;;;;4.47;2.75;;;5.10;99.90;;;;;;5034772;28;20202;-60
2023/03/04 04:01:37;;;;;;;5.43;1.80;;;5.10;99.90;;;;;;5033399;28;20209;-60
2023/03/04 04:04:04;;;;;;;5.50;2.03;;;5.10;99.90;;;;;;5033396;28;20238;-60
2023/03/04 04:06:32;;;;;;;4.40;1.98;;;5.10;99.90;;;;;;5033747;28;20187;-60
2023/03/04 04:11:18;;;;;;;12.48;3.63;;;5.10;99.90;;;;;;5091973;27;21043;-59
2023/03/04 04:13:44;;;;;;;5.32;2.08;;;5.00;99.90;;;;;;5096347;28;20197;-61
2023/03/04 04:16:12;;;;;;;4.55;1.92;;;5.00;99.90;;;;;;5095767;28;20572;-60
2023/03/04 04:18:38;;;;;;;4.22;1.73;;;5.00;99.90;;;;;;5091397;28;20204;-61
2023/03/04 04:21:06;;;;;;;4.85;1.65;;;5.00;99.90;;;;;;5090970;28;20204;-60
2023/03/04 04:23:33;;;;;;;4.82;2.33;;;5.10;99.90;;;;;;5112704;22;20227;-62
2023/03/04 04:26:00;;;;;;;7.22;2.40;;;5.00;99.90;;;;;;5070313;28;20197;-60
2023/03/04 04:28:28;;;;;;;6.93;1.92;;;5.00;99.90;;;;;;5070746;28;20208;-60
2023/03/04 04:30:55;;;;;;;5.15;2.05;;;5.00;99.90;;;;;;5070585;28;20213;-61
2023/03/04 04:33:21;;;;;;;7.38;1.88;;;5.00;99.90;;;;;;5070276;28;20225;-60
2023/03/04 04:35:48;;;;;;;13.05;2.30;;;4.80;99.90;;;;;;5069917;28;20682;-60
2023/03/04 04:38:15;;;;;;;7.40;1.80;;;4.80;99.90;;;;;;5069927;28;20212;-60
2023/03/04 04:40:42;;;;;;;5.75;2.05;;;4.60;99.90;;;;;;5070219;28;20208;-60
2023/03/04 04:43:09;;;;;;;9.30;2.90;;;4.60;99.90;;;;;;5069578;28;20201;-60
2023/03/04 04:45:37;;;;;;;9.95;1.90;;;4.60;99.90;;;;;;5069749;28;20225;-60
2023/03/04 04:48:04;;;;;;;9.90;2.17;;;4.60;99.90;;;;;;5069809;28;20271;-60
2023/03/04 04:50:30;;;;;;;4.68;1.60;;;4.50;99.90;;;;;;5069879;28;20225;-60
2023/03/04 04:52:57;;;;;;;4.78;2.67;;;4.50;99.90;;;;;;5069780;28;20208;-60
2023/03/04 04:55:24;;;;;;;8.75;3.10;;;4.50;99.90;;;;;;5069651;28;20248;-60
2023/03/04 04:57:51;;;;;;;4.78;2.25;;;4.50;99.90;;;;;;5069474;28;20205;-60
2023/03/04 05:00:19;;;;;;;7.60;2.38;;;4.50;99.90;;;;;;5069371;28;20201;-61
2023/03/04 05:02:47;;;;;;;9.07;2.08;;;4.50;99.90;;;;;;5069146;28;20682;-61
2023/03/04 05:05:13;;;;;;;3.83;1.88;;;4.50;99.90;;;;;;5069356;28;20229;-60
2023/03/04 05:07:40;;;;;;;8.23;2.17;;;4.50;99.90;;;;;;5069283;28;20197;-61
2023/03/04 05:10:08;;;;;;;3.08;1.85;;;4.50;99.90;;;;;;5069234;28;20228;-61
2023/03/04 05:12:35;;;;;;;5.78;2.00;;;4.50;99.90;;;;;;5069113;28;20208;-61
2023/03/04 05:15:02;;;;;;;7.13;2.17;;;4.50;99.90;;;;;;5069285;28;20227;-62
2023/03/04 05:17:29;;;;;;;5.32;1.80;;;4.50;99.90;;;;;;5068698;28;20243;-61
2023/03/04 05:19:57;;;;;;;8.35;1.48;;;4.50;99.90;;;;;;5069203;28;20629;-60
2023/03/04 05:22:23;;;;;;;3.20;1.70;;;4.50;99.90;;;;;;5056929;28;20205;-60
2023/03/04 05:24:50;;;;;;;5.25;1.98;;;4.50;99.90;;;;;;5055515;28;20233;-61
2023/03/04 05:27:17;;;;;;;4.50;2.60;;;4.50;99.90;;;;;;5055626;28;20205;-61
2023/03/04 05:29:45;;;;;;;11.07;2.95;;;4.50;99.90;;;;;;5056133;28;20655;-61
2023/03/04 05:32:12;;;;;;;2.40;2.20;;;4.50;99.90;;;;;;5055472;28;20202;-60
2023/03/04 05:34:39;;;;;;;9.15;2.15;;;4.50;99.90;;;;;;5055679;28;20217;-61
2023/03/04 05:37:07;;;;;;;3.70;2.10;;;4.50;99.90;;;;;;5055616;28;20206;-60
2023/03/04 05:39:34;;;;;;;5.05;2.17;;;4.50;99.90;;;;;;5055739;28;20211;-60
2023/03/04 05:42:00;;;;;;;4.10;1.70;;;4.50;99.90;;;;;;5055688;28;20198;-61
2023/03/04 05:44:27;;;;;;;4.05;1.85;;;4.50;99.90;;;;;;5055692;28;20228;-59
2023/03/04 05:46:54;;;;;;;2.78;2.10;;;4.50;99.90;;;;;;5055139;28;20201;-60
2023/03/04 05:49:21;;;;;;;7.18;2.30;;;4.50;99.90;;;;;;5055276;28;20212;-60
2023/03/04 05:51:47;;;;;;;9.70;2.30;;;4.40;99.90;;;;;;5055202;28;20205;-60
2023/03/04 05:54:16;;;;;;;4.68;2.28;;;4.40;99.90;;;;;;5055298;28;20304;-61
2023/03/04 05:56:42;;;;;;;5.00;2.10;;;4.40;99.90;;;;;;5055105;28;20210;-60
2023/03/04 05:59:09;;;;;;;9.80;2.00;;;4.40;99.90;;;;;;5054952;28;20687;-60
2023/03/04 06:01:36;;;;;;;8.57;2.00;;;4.40;99.90;;;;;;5054770;28;20221;-60
2023/03/04 06:04:03;;;;;;;6.88;2.22;;;4.50;99.90;;;;;;5055125;28;20221;-61
2023/03/04 06:06:30;;;;;;;5.43;1.63;;;4.50;99.90;;;;;;5057196;28;20198;-59
2023/03/04 06:08:56;;;;;;;7.30;1.60;;;4.50;99.90;;;;;;5049593;28;20208;-60
2023/03/04 06:11:24;;;;;;;4.22;2.45;;;4.50;99.90;;;;;;5052094;28;20728;-60
2023/03/04 06:13:51;;;;;;;7.65;2.03;;;4.50;99.90;;;;;;5058257;28;20213;-60
2023/03/04 06:16:18;;;;;;;6.65;1.90;;;4.50;99.90;;;;;;5066535;28;20202;-61
2023/03/04 06:18:44;;;;;;;8.85;2.20;;;4.50;99.90;;;;;;5059227;28;20254;-61
2023/03/04 06:21:11;;;;;;;9.18;1.67;;;4.50;99.90;;;;;;5044251;28;20662;-60
2023/03/04 06:23:38;;;;;;;10.60;1.85;;;4.50;99.90;;;;;;5062260;28;20201;-61
2023/03/04 06:26:08;;;;;;;7.53;2.05;;;4.50;99.90;;;;;;5055309;28;20194;-61
2023/03/04 06:28:36;;;;;;;6.35;2.30;;;4.50;99.90;;;;;;5035511;28;20242;-62
2023/03/04 06:31:03;;;;;;;4.53;1.83;;;4.50;99.90;;;;;;5053427;28;20217;-61
2023/03/04 06:33:29;;;;;;;8.98;1.80;;;4.50;99.90;;;;;;5054949;28;20205;-61
2023/03/04 06:35:57;;;;;;;11.07;1.83;;;4.40;99.90;;;;;;5053697;28;20201;-61
2023/03/04 06:38:24;;;;;;;6.03;1.70;;;4.40;99.90;;;;;;5053080;28;20198;-60
2023/03/04 06:40:51;;;;;;;8.10;1.92;;;4.40;99.90;;;;;;5049874;28;20202;-60
2023/03/04 06:43:18;;;;;;;11.02;3.33;;;4.50;99.90;;;;;;5050052;28;20201;-60
2023/03/04 06:45:46;;;;;;;3.75;1.58;;;4.50;99.90;;;;;;5061460;28;20668;-60
2023/03/04 06:48:13;;;;;;;6.45;2.58;;;4.50;99.90;;;;;;5059511;28;20218;-60
2023/03/04 06:50:40;;;;;;;7.35;1.88;;;4.60;99.90;;;;;;5058072;28;20639;-62
2023/03/04 06:53:07;;;;;;;7.18;2.08;;;4.60;99.90;;;;;;5059785;28;20204;-59
2023/03/04 06:55:34;;;;;;;7.18;1.75;;;4.70;99.90;;;;;;5043061;28;20225;-61
2023/03/04 06:58:01;;;;;;;4.15;1.40;;;4.70;99.90;;;;;;5057203;28;20202;-59
2023/03/04 07:00:27;;;;;;;9.13;1.90;;;4.70;99.90;;;;;;5052405;28;20197;-59
2023/03/04 07:02:57;;;;;;;1.95;1.75;;;4.70;99.90;;;;;;5057422;28;20206;-60
2023/03/04 07:05:24;;;;;;;4.13;1.63;;;4.60;99.90;;;;;;5056322;28;20302;-62
2023/03/04 07:07:51;;;;;;;11.75;2.00;;;4.60;99.90;;;;;;5053044;28;20213;-61
2023/03/04 07:10:18;;;;;;;5.20;1.75;;;4.60;99.90;;;;;;5055225;28;20225;-60
2023/03/04 07:12:44;;;;;;;7.65;2.05;;;4.70;99.90;;;;;;5053109;28;20204;-61
2023/03/04 07:15:12;;;;;;;4.18;2.03;;;4.70;99.90;;;;;;5053552;28;20707;-61
2023/03/04 07:17:38;;;;;;;6.75;1.75;;;4.70;99.90;;;;;;5053416;28;20194;-60
2023/03/04 07:20:07;;;;;;;5.13;1.85;;;4.70;99.90;;;;;;5052735;28;20202;-58
2023/03/04 07:22:34;;;;;;;4.05;1.95;;;4.80;99.90;;;;;;5053292;28;20206;-59
2023/03/04 07:25:01;;;;;;;3.83;1.90;;;4.70;99.90;;;;;;5052682;28;20233;-60
2023/03/04 07:27:28;;;;;;;2.17;1.20;;;4.80;99.90;;;;;;5045016;28;20193;-60
2023/03/04 07:29:55;;;;;;;2.33;1.40;;;4.70;99.90;;;;;;5049077;28;20210;-59
2023/03/04 07:32:21;;;;;;;8.75;1.83;;;4.70;99.90;;;;;;5053540;28;20198;-60
2023/03/04 07:34:48;;;;;;;6.60;2.08;;;4.70;99.90;;;;;;5052810;28;20226;-60
2023/03/04 07:37:16;;;;;;;2.10;1.90;;;4.70;99.90;;;;;;5053463;28;20201;-59
2023/03/04 07:39:43;;;;;;;10.15;2.33;;;4.70;99.90;;;;;;5053003;28;20611;-60
2023/03/04 07:42:10;;;;;;;5.30;2.17;;;4.80;99.90;;;;;;5054255;28;20198;-59
2023/03/04 07:44:37;;;;;;;5.13;1.92;;;4.80;99.90;;;;;;5056291;28;20223;-60
2023/03/04 07:47:04;;;;;;;4.15;1.70;;;4.90;99.90;;;;;;5049019;28;20197;-60
2023/03/04 07:49:30;;;;;;;6.28;2.13;;;4.90;99.90;;;;;;5037144;28;20198;-60
2023/03/04 07:51:57;;;;;;;7.95;2.08;;;5.00;99.90;;;;;;5045188;28;20221;-60
2023/03/04 07:54:25;;;;;;;6.05;2.13;;;5.10;99.90;;;;;;5053019;28;20337;-60
2023/03/04 07:56:52;;;;;;;4.90;2.38;;;5.10;99.90;;;;;;5053365;28;20202;-61
2023/03/04 07:59:19;;;;;;;3.80;2.25;;;5.10;99.90;;;;;;5055314;28;20200;-59
2023/03/04 08:01:46;;;;;;;4.63;2.10;;;5.10;99.90;;;;;;5052512;28;20289;-59
2023/03/04 08:04:12;;;;;;;4.40;2.83;;;5.20;99.90;;;;;;5052834;28;20221;-60
2023/03/04 08:06:41;;;;;;;2.00;1.70;;;5.10;99.90;;;;;;5053652;28;20198;-60
2023/03/04 08:09:09;;;;;;;5.38;2.50;;;5.10;99.90;;;;;;5053050;28;20675;-59
2023/03/04 08:11:38;;;;;;;2.15;1.63;;;5.00;99.90;;;;;;5053174;28;20703;-60
2023/03/04 08:14:04;;;;;;;3.83;2.13;;;5.00;99.90;;;;;;5052274;28;20714;-60
2023/03/04 08:16:31;;;;;;;4.68;2.25;;;5.00;99.90;;;;;;5053234;28;20194;-60
2023/03/04 08:19:00;;;;;;;5.68;2.17;;;5.00;99.90;;;;;;5052768;28;20194;-60
2023/03/04 08:21:27;;;;;;;8.18;3.65;;;4.90;99.90;;;;;;5052824;28;20193;-59
2023/03/04 08:23:54;;;;;;;4.40;2.35;;;4.90;99.90;;;;;;5052214;28;20236;-61
2023/03/04 08:26:24;;;;;;;7.03;2.25;;;4.90;99.90;;;;;;5052863;28;20208;-60
2023/03/04 08:28:53;;;;;;;3.85;1.80;;;4.90;99.90;;;;;;5052193;28;20208;-60
2023/03/04 08:31:20;;;;;;;4.88;1.70;;;4.90;99.90;;;;;;5053354;28;20218;-60
2023/03/04 08:33:47;;;;;;;4.25;2.40;;;4.90;99.90;;;;;;5060806;28;20224;-60
2023/03/04 08:36:15;;;;;;;3.35;2.20;;;4.90;99.90;;;;;;5061237;28;20205;-61
2023/03/04 08:38:42;;;;;;;5.70;2.30;;;4.90;99.90;;;;;;5053946;28;20228;-59
2023/03/04 08:41:09;;;;;;;3.85;2.35;;;4.80;99.90;;;;;;5053097;28;20221;-59
2023/03/04 08:43:37;;;;;;;4.53;2.72;;;4.90;99.90;;;;;;5060757;28;20201;-59
2023/03/04 08:46:06;;;;;;;5.45;2.67;;;4.90;99.90;;;;;;5054931;28;20288;-59
2023/03/04 08:48:33;;;;;;;8.20;2.72;;;4.90;99.90;;;;;;5055325;28;20206;-60
2023/03/04 08:51:00;;;;;;;6.15;2.45;;;5.00;99.90;;;;;;5052302;28;20221;-61
2023/03/04 08:53:27;;;;;;;7.05;2.60;;;5.00;99.90;;;;;;5055915;28;20197;-59
2023/03/04 08:55:54;;;;;;;3.08;2.70;;;4.90;99.90;;;;;;5042190;28;20198;-60
2023/03/04 08:58:21;;;;;;;7.03;2.92;;;4.90;99.90;;;;;;5060694;28;20201;-61
2023/03/04 09:00:50;;;;;;;5.55;2.67;;;4.90;99.90;;;;;;5049961;28;20186;-60
2023/03/04 09:03:19;;;;;;;8.73;2.90;;;4.90;99.90;;;;;;5059315;28;20206;-59
2023/03/04 09:05:47;;;;;;;5.93;3.30;;;4.90;99.90;;;;;;5050701;28;20202;-61
2023/03/04 09:08:14;;;;;;;4.10;2.75;;;4.90;99.90;;;;;;5062270;28;20646;-60
2023/03/04 09:10:41;;;;;;;4.07;2.80;;;4.90;99.90;;;;;;5059063;28;20201;-61
2023/03/04 09:13:10;;;;;;;1.75;1.65;;;4.90;99.90;;;;;;5061832;28;20197;-60
2023/03/04 09:15:38;;;;;;;6.22;2.70;;;4.90;99.90;;;;;;5075912;28;20247;-61
2023/03/04 09:18:05;;;;;;;4.28;2.28;;;4.90;99.90;;;;;;5063151;28;20207;-60
2023/03/04 09:20:34;;;;;;;7.43;3.00;;;5.00;99.90;;;;;;5048702;28;20201;-60
2023/03/04 09:23:01;;;;;;;4.70;3.53;;;5.00;99.90;;;;;;5050462;28;20205;-61
2023/03/04 09:25:28;;;;;;;7.32;3.35;;;5.10;99.90;;;;;;5055853;28;20229;-59
2023/03/04 09:27:55;;;;;;;8.90;3.22;;;5.20;99.90;;;;;;5061866;28;20224;-60
2023/03/04 09:30:22;;;;;;;8.18;3.92;;;5.30;99.90;;;;;;5075850;28;20204;-59
2023/03/04 09:32:49;;;;;;;4.97;3.85;;;5.40;99.90;;;;;;5056696;28;20264;-59
2023/03/04 09:35:15;;;;;;;9.75;4.03;;;5.50;99.90;;;;;;5054192;28;20233;-60
2023/03/04 09:37:45;;;;;;;9.40;4.00;;;5.60;99.90;;;;;;5075809;28;20228;-59
2023/03/04 09:40:19;;;;;;;8.50;4.60;;;5.60;99.90;;;;;;5066805;28;20202;-60
2023/03/04 09:42:49;;;;;;;6.90;3.80;;;5.60;99.90;;;;;;5055393;28;20654;-59
2023/03/04 09:45:19;;;;;;;10.18;4.35;;;5.60;99.90;;;;;;5055674;28;20313;-59
2023/03/04 09:47:48;;;;;;;9.55;3.65;;;5.60;99.90;;;;;;5056332;28;20202;-60
2023/03/04 09:50:15;;;;;;;5.05;2.88;;;5.60;99.90;;;;;;5055718;28;20202;-59
2023/03/04 09:53:01;;;;;;;6.10;2.88;;;5.70;99.90;;;;;;5067203;28;20217;-60
2023/03/04 09:55:33;;;;;;;3.22;2.60;;;5.60;99.90;;;;;;5075800;28;20274;-60
2023/03/04 09:58:06;;;;;;;3.15;2.70;;;5.60;99.90;;;;;;5066947;28;20212;-59
2023/03/04 10:00:39;;;;;;;3.90;2.65;;;5.50;99.90;;;;;;5055354;28;20186;-60
2023/03/04 10:03:22;;;;;;;4.05;2.92;;;5.50;99.90;;;;;;5055625;28;20265;-59
2023/03/04 10:05:56;;;;;;;5.18;2.90;;;5.40;99.90;;;;;;5056933;28;20190;-60
2023/03/04 10:08:39;;;;;;;11.27;3.35;;;5.40;99.90;;;;;;5055380;28;20264;-60
2023/03/04 10:11:12;;;;;;;10.20;3.83;;;5.40;99.90;;;;;;5055137;28;20209;-59
2023/03/04 10:13:47;;;;;;;5.13;2.70;;;5.50;99.90;;;;;;5055143;28;20186;-59
2023/03/04 10:16:19;;;;;;;6.38;2.80;;;5.60;99.90;;;;;;5054849;28;20202;-60
2023/03/04 10:18:50;;;;;;;7.93;3.95;;;5.60;99.90;;;;;;5055167;28;20193;-60
2023/03/04 10:21:23;;;;;;;10.65;3.95;;;5.70;99.90;;;;;;5054925;28;20179;-61
2023/03/04 10:23:53;;;;;;;9.25;3.05;;;5.80;99.90;;;;;;5054015;28;20252;-59
2023/03/04 10:26:22;;;;;;;9.82;3.78;;;5.80;99.90;;;;;;5045310;28;20204;-63
2023/03/04 10:28:49;;;;;;;8.60;2.95;;;5.70;99.90;;;;;;5054175;28;20209;-61
2023/03/04 10:31:22;;;;;;;7.35;3.85;;;5.70;99.90;;;;;;5053879;28;20221;-61
2023/03/04 10:33:49;;;;;;;8.80;3.10;;;5.70;99.90;;;;;;5053806;28;20222;-61
2023/03/04 10:36:36;;;;;;;12.27;3.63;;;5.70;99.90;;;;;;5056582;28;20216;-60
2023/03/04 10:39:08;;;;;;;9.90;3.08;;;5.70;99.90;;;;;;5053700;28;20223;-60
2023/03/04 10:41:35;;;;;;;8.15;2.70;;;5.80;99.90;;;;;;5053953;28;20204;-60
2023/03/04 10:44:05;;;;;;;6.45;2.50;;;5.80;99.90;;;;;;5053627;28;20221;-61
2023/03/04 10:46:32;;;;;;;6.00;3.25;;;6.00;99.90;;;;;;5053438;28;20323;-61
2023/03/04 10:48:59;;;;;;;8.10;2.55;;;6.20;99.90;;;;;;5053468;28;20206;-61
2023/03/04 10:51:28;;;;;;;11.05;3.13;;;6.50;99.90;;;;;;5056625;28;20232;-61
2023/03/04 10:53:58;;;;;;;6.43;2.50;;;6.70;99.90;;;;;;5054630;28;20218;-61
2023/03/04 10:56:41;;;;;;;10.35;3.95;;;6.80;99.90;;;;;;5054560;28;20584;-60
2023/03/04 10:59:40;;;;;;;7.72;3.08;;;6.90;99.90;;;;;;5053835;28;20286;-59
2023/03/04 11:02:21;;;;;;;12.95;3.00;;;7.00;99.90;;;;;;5056621;28;20198;-60
2023/03/04 11:04:54;;;;;;;11.63;3.30;;;7.00;99.90;;;;;;5038827;28;20217;-60
2023/03/04 11:07:22;;;;;;;6.20;3.00;;;7.20;99.90;;;;;;5054155;28;20695;-59
2023/03/04 11:09:49;;;;;;;3.40;1.77;;;7.40;99.90;;;;;;5053988;28;20206;-61
2023/03/04 11:12:20;;;;;;;4.15;3.10;;;7.50;99.90;;;;;;5053539;28;20218;-58
2023/03/04 11:14:49;;;;;;;3.55;2.97;;;7.30;99.90;;;;;;5054588;28;20221;-59
2023/03/04 11:17:20;;;;;;;6.10;3.30;;;7.10;99.90;;;;;;5054046;28;20204;-59
2023/03/04 11:19:52;;;;;;;7.05;2.53;;;6.80;99.90;;;;;;5053470;28;20661;-59
2023/03/04 11:22:22;;;;;;;8.05;2.65;;;6.50;99.90;;;;;;5055682;28;20194;-58
2023/03/04 11:24:56;;;;;;;2.50;1.60;;;6.20;99.90;;;;;;5052362;28;20607;-59
2023/03/04 11:27:33;;;;;;;5.72;3.15;;;6.00;99.90;;;;;;5056415;28;20563;-59
2023/03/04 11:30:25;;;;;;;4.65;2.28;;;5.90;99.90;;;;;;5053798;28;20205;-59
2023/03/04 11:32:55;;;;;;;5.43;2.17;;;6.00;99.90;;;;;;5047295;28;20229;-60
2023/03/04 11:35:27;;;;;;;5.45;3.03;;;6.10;99.90;;;;;;5057073;28;20217;-60
2023/03/04 11:38:03;;;;;;;7.85;2.30;;;6.20;99.90;;;;;;5041083;28;20195;-60
2023/03/04 11:40:36;;;;;;;6.30;2.65;;;6.30;99.90;;;;;;5045995;28;20202;-59
2023/03/04 11:43:12;;;;;;;4.57;2.50;;;6.40;99.90;;;;;;5054671;28;20182;-60
2023/03/04 11:46:01;;;;;;;4.88;2.03;;;6.60;99.90;;;;;;5053267;28;20718;-59
2023/03/04 11:48:42;;;;;;;7.65;3.40;;;6.70;99.90;;;;;;5054235;28;20221;-60
2023/03/04 11:51:18;;;;;;;6.68;2.63;;;6.70;99.90;;;;;;5053837;28;20649;-58
2023/03/04 11:54:05;;;;;;;15.80;3.58;;;6.70;99.90;;;;;;5053653;28;20225;-58
2023/03/04 11:56:35;;;;;;;9.05;3.80;;;6.70;99.90;;;;;;5050333;28;20211;-59
2023/03/04 11:59:37;;;;;;;9.68;4.25;;;6.80;99.90;;;;;;5053154;28;20260;-60
2023/03/04 12:02:13;;;;;;;9.23;4.60;;;6.70;99.90;;;;;;5046296;28;20205;-61
2023/03/04 12:04:53;;;;;;;10.38;3.70;;;6.70;99.90;;;;;;5043622;28;20581;-58
2023/03/04 12:07:40;;;;;;;7.60;3.85;;;6.80;99.90;;;;;;5053560;28;20202;-59
2023/03/04 12:10:19;;;;;;;13.73;4.38;;;6.90;99.90;;;;;;5052973;28;20566;-57
2023/03/04 12:13:01;;;;;;;12.23;4.47;;;7.10;99.90;;;;;;5051904;28;20728;-62
2023/03/04 12:15:37;;;;;;;6.07;3.28;;;7.30;99.90;;;;;;5052244;28;20225;-59
2023/03/04 12:18:30;;;;;;;9.68;4.22;;;7.30;99.90;;;;;;5051102;28;20655;-60
2023/03/04 12:21:05;;;;;;;5.82;2.92;;;7.40;99.90;;;;;;5044547;28;20677;-60
2023/03/04 12:24:11;;;;;;;3.97;2.08;;;7.50;99.90;;;;;;5052596;28;20215;-59
2023/03/04 12:26:42;;;;;;;6.50;2.72;;;7.60;99.60;;;;;;5052933;28;20320;-58
2023/03/04 12:29:16;;;;;;;9.60;2.85;;;7.60;96.70;;;;;;5052658;28;20649;-59
2023/03/04 12:31:46;;;;;;;11.65;2.83;;;7.50;95.30;;;;;;5053981;28;20201;-59
2023/03/04 12:34:30;;;;;;;4.13;2.20;;;7.50;95.50;;;;;;5060360;28;20218;-59
2023/03/04 12:37:10;;;;;;;8.07;3.13;;;7.60;94.50;;;;;;5040546;28;20198;-59
2023/03/04 12:39:41;;;;;;;6.07;2.28;;;7.60;94.60;;;;;;5040817;28;20189;-58
2023/03/04 12:42:18;;;;;;;5.82;2.10;;;7.70;94.60;;;;;;5056738;28;20228;-59
2023/03/04 12:44:53;;;;;;;10.07;3.35;;;7.70;94.10;;;;;;5055856;28;20223;-60
2023/03/04 12:47:35;;;;;;;6.65;3.10;;;7.80;94.20;;;;;;5056708;28;20200;-59
2023/03/04 12:50:29;;;;;;;3.50;2.20;;;7.80;94.40;;;;;;5054550;28;20208;-59
2023/03/04 12:53:05;;;;;;;8.00;2.85;;;7.70;91.80;;;;;;5036420;28;20207;-60
2023/03/04 12:55:36;;;;;;;8.48;2.47;;;7.50;92.40;;;;;;5036178;28;20230;-59
2023/03/04 12:58:04;;;;;;;6.40;3.08;;;7.30;93.60;;;;;;5036968;28;20207;-59
2023/03/04 13:00:44;;;;;;;8.43;3.42;;;7.20;94.60;;;;;;5039943;28;20639;-59
2023/03/04 13:03:17;;;;;;;6.60;3.63;;;7.10;95.30;;;;;;5059973;28;20194;-63
2023/03/04 13:05:57;;;;;;;7.75;2.65;;;7.00;96.00;;;;;;5055716;28;20229;-59
2023/03/04 13:08:34;;;;;;;7.53;3.30;;;7.00;96.40;;;;;;5056161;28;20284;-60
2023/03/04 13:11:02;;;;;;;6.25;4.90;;;6.80;97.40;;;;;;5057019;28;20202;-61